createdAt,value
2023-03-16T00:00:02.584Z,86.4
2023-03-16T00:15:03.000Z,88.5
2023-03-16T00:30:02.541Z,88.9
2023-03-16T00:45:02.848Z,88.6
2023-03-16T01:00:02.513Z,88.9
2023-03-16T01:15:02.756Z,89.2
2023-03-16T01:30:02.194Z,89.2
2023-03-16T01:45:02.643Z,89.5
2023-03-16T02:00:03.093Z,89.6
2023-03-16T02:15:02.566Z,89.2
2023-03-16T02:30:02.956Z,89.1
2023-03-16T02:45:02.577Z,89.1
2023-03-16T03:00:02.828Z,88.8
2023-03-16T03:15:03.307Z,88.7
2023-03-16T03:30:02.688Z,88.7
2023-03-16T03:45:03.121Z,88.5
2023-03-16T04:00:02.579Z,88.6
2023-03-16T04:15:02.986Z,87.9
2023-03-16T04:30:02.576Z,86.0
2023-03-16T04:45:02.876Z,83.0
2023-03-16T05:00:02.304Z,79.5
2023-03-16T05:15:02.751Z,77.9
2023-03-16T05:30:02.188Z,76.2
2023-03-16T05:45:02.644Z,74.6
2023-03-16T06:00:03.094Z,73.2
2023-03-16T06:15:02.644Z,69.5
2023-03-16T06:30:02.970Z,68.0
2023-03-16T06:45:02.821Z,65.7
2023-03-16T07:00:02.820Z,64.0
2023-03-16T07:15:03.276Z,62.3
2023-03-16T07:30:02.721Z,61.0
2023-03-16T07:45:03.138Z,62.1
2023-03-16T08:00:02.628Z,60.7
2023-03-16T08:15:03.013Z,58.7
2023-03-16T08:30:02.636Z,58.8
2023-03-16T08:45:02.849Z,58.2
2023-03-16T09:00:02.344Z,56.5
2023-03-16T09:15:02.710Z,54.8
2023-03-16T09:30:03.149Z,53.1
2023-03-16T09:45:02.644Z,51.9
2023-03-16T10:00:03.015Z,52.5
2023-03-16T10:15:02.742Z,54.2
2023-03-16T10:45:03.367Z,51.8
2023-03-16T11:00:02.774Z,51.2
2023-03-16T11:15:03.735Z,49.2
2023-03-16T11:30:03.668Z,51.3
2023-03-16T11:45:03.101Z,55.0
2023-03-16T12:00:02.689Z,58.0
2023-03-16T12:15:02.966Z,60.3
2023-03-16T12:30:02.403Z,57.7
2023-03-16T12:45:02.847Z,54.6
2023-03-16T13:00:02.276Z,54.5
2023-03-16T13:15:02.730Z,52.8
2023-03-16T13:30:02.204Z,51.5
2023-03-16T13:45:02.731Z,49.1
2023-03-16T14:00:03.059Z,48.5
2023-03-16T14:15:02.701Z,46.7
2023-03-16T14:30:02.960Z,48.8
2023-03-16T14:45:02.433Z,47.9
2023-03-16T15:00:02.866Z,47.1
2023-03-16T15:15:02.234Z,47.5
2023-03-16T15:30:02.727Z,48.5
2023-03-16T15:45:03.146Z,49.3
2023-03-16T16:00:02.714Z,49.5
2023-03-16T16:15:02.993Z,49.5
2023-03-16T16:30:02.434Z,50.9
2023-03-16T16:45:02.871Z,51.1
2023-03-16T17:00:02.342Z,51.8
2023-03-16T17:15:02.787Z,52.2
2023-03-16T17:30:02.181Z,53.5
2023-03-16T17:45:02.733Z,55.0
2023-03-16T18:00:03.119Z,56.5
2023-03-16T18:15:02.720Z,58.4
2023-03-16T18:30:02.919Z,60.7
2023-03-16T18:45:02.385Z,62.6
2023-03-16T19:00:02.801Z,63.7
2023-03-16T19:15:03.252Z,64.8
2023-03-16T19:30:02.746Z,65.1
2023-03-16T19:45:03.131Z,65.3
2023-03-16T20:00:02.780Z,65.5
2023-03-16T20:15:02.981Z,67.4
2023-03-16T20:30:02.401Z,68.0
2023-03-16T20:45:02.854Z,68.8
2023-03-16T21:00:02.262Z,69.3
2023-03-16T21:15:02.794Z,69.6
2023-03-16T21:30:02.163Z,69.6
2023-03-16T21:45:02.784Z,70.2
2023-03-16T22:00:03.044Z,70.5
2023-03-16T22:15:02.478Z,70.5
2023-03-16T22:30:02.953Z,70.1
2023-03-16T22:45:02.425Z,70.1
2023-03-16T23:00:02.840Z,71.2
2023-03-16T23:15:02.239Z,71.0
2023-03-16T23:30:02.817Z,70.5
2023-03-16T23:45:02.115Z,70.3
